sensor_id;sensor_type;location;lat;lon;timestamp;P1;durP1;ratioP1;P2;durP2;ratioP2
28022;SDS011;67403;50.104;8.758;2023-04-16T00:01:16;12.25;;;4.85;;
28022;SDS011;67403;50.104;8.758;2023-04-16T00:03:43;10.23;;;4.68;;
28022;SDS011;67403;50.104;8.758;2023-04-16T00:06:10;8.60;;;4.82;;
28022;SDS011;67403;50.104;8.758;2023-04-16T00:08:38;8.98;;;5.03;;
28022;SDS011;67403;50.104;8.758;2023-04-16T00:11:07;11.43;;;5.53;;
28022;SDS011;67403;50.104;8.758;2023-04-16T00:13:34;9.10;;;5.28;;
28022;SDS011;67403;50.104;8.758;2023-04-16T00:16:02;11.60;;;5.38;;
28022;SDS011;67403;50.104;8.758;2023-04-16T00:18:28;11.48;;;6.28;;
28022;SDS011;67403;50.104;8.758;2023-04-16T00:20:56;11.05;;;5.38;;
28022;SDS011;67403;50.104;8.758;2023-04-16T00:23:23;10.48;;;4.15;;
28022;SDS011;67403;50.104;8.758;2023-04-16T00:25:52;11.27;;;5.68;;
28022;SDS011;67403;50.104;8.758;2023-04-16T00:28:21;9.77;;;4.40;;
28022;SDS011;67403;50.104;8.758;2023-04-16T00:30:48;9.38;;;5.47;;
28022;SDS011;67403;50.104;8.758;2023-04-16T00:33:15;9.02;;;4.93;;
28022;SDS011;67403;50.104;8.758;2023-04-16T00:35:43;11.75;;;5.60;;
28022;SDS011;67403;50.104;8.758;2023-04-16T00:38:10;9.02;;;4.97;;
28022;SDS011;67403;50.104;8.758;2023-04-16T00:40:37;9.20;;;4.65;;
28022;SDS011;67403;50.104;8.758;2023-04-16T00:43:06;8.40;;;4.32;;
28022;SDS011;67403;50.104;8.758;2023-04-16T00:45:32;8.27;;;5.28;;
28022;SDS011;67403;50.104;8.758;2023-04-16T00:48:00;10.25;;;4.68;;
28022;SDS011;67403;50.104;8.758;2023-04-16T00:50:27;8.85;;;4.93;;
28022;SDS011;67403;50.104;8.758;2023-04-16T00:52:54;10.75;;;5.43;;
28022;SDS011;67403;50.104;8.758;2023-04-16T00:55:22;8.57;;;5.07;;
28022;SDS011;67403;50.104;8.758;2023-04-16T00:57:49;11.00;;;4.97;;
28022;SDS011;67403;50.104;8.758;2023-04-16T01:00:17;11.40;;;5.57;;
28022;SDS011;67403;50.104;8.758;2023-04-16T01:02:45;11.33;;;5.57;;
28022;SDS011;67403;50.104;8.758;2023-04-16T01:05:12;10.23;;;5.50;;
28022;SDS011;67403;50.104;8.758;2023-04-16T01:07:39;15.90;;;6.30;;
28022;SDS011;67403;50.104;8.758;2023-04-16T01:10:06;10.15;;;5.80;;
28022;SDS011;67403;50.104;8.758;2023-04-16T01:12:34;10.60;;;5.38;;
28022;SDS011;67403;50.104;8.758;2023-04-16T01:15:00;16.92;;;6.18;;
28022;SDS011;67403;50.104;8.758;2023-04-16T01:17:29;11.48;;;4.80;;
28022;SDS011;67403;50.104;8.758;2023-04-16T01:19:57;12.55;;;5.70;;
28022;SDS011;67403;50.104;8.758;2023-04-16T01:22:25;10.60;;;5.32;;
28022;SDS011;67403;50.104;8.758;2023-04-16T01:24:52;10.27;;;5.30;;
28022;SDS011;67403;50.104;8.758;2023-04-16T01:27:19;13.77;;;5.05;;
28022;SDS011;67403;50.104;8.758;2023-04-16T01:29:46;9.48;;;5.65;;
28022;SDS011;67403;50.104;8.758;2023-04-16T01:32:13;10.73;;;5.53;;
28022;SDS011;67403;50.104;8.758;2023-04-16T01:34:40;9.50;;;5.43;;
28022;SDS011;67403;50.104;8.758;2023-04-16T01:37:07;10.65;;;5.40;;
28022;SDS011;67403;50.104;8.758;2023-04-16T01:39:35;10.80;;;5.80;;
28022;SDS011;67403;50.104;8.758;2023-04-16T01:42:02;13.52;;;6.35;;
28022;SDS011;67403;50.104;8.758;2023-04-16T01:44:29;12.90;;;5.93;;
28022;SDS011;67403;50.104;8.758;2023-04-16T01:46:56;14.18;;;6.68;;
28022;SDS011;67403;50.104;8.758;2023-04-16T01:49:23;11.43;;;5.78;;
28022;SDS011;67403;50.104;8.758;2023-04-16T01:51:50;12.75;;;5.43;;
28022;SDS011;67403;50.104;8.758;2023-04-16T01:54:17;10.10;;;5.50;;
28022;SDS011;67403;50.104;8.758;2023-04-16T01:56:45;13.75;;;5.75;;
28022;SDS011;67403;50.104;8.758;2023-04-16T01:59:12;10.40;;;5.35;;
28022;SDS011;67403;50.104;8.758;2023-04-16T02:01:39;10.13;;;5.18;;
28022;SDS011;67403;50.104;8.758;2023-04-16T02:04:06;9.88;;;5.22;;
28022;SDS011;67403;50.104;8.758;2023-04-16T02:06:33;11.60;;;5.65;;
28022;SDS011;67403;50.104;8.758;2023-04-16T02:09:00;13.50;;;6.00;;
28022;SDS011;67403;50.104;8.758;2023-04-16T02:11:27;8.82;;;5.13;;
28022;SDS011;67403;50.104;8.758;2023-04-16T02:13:55;11.68;;;5.68;;
28022;SDS011;67403;50.104;8.758;2023-04-16T02:16:22;12.90;;;5.13;;
28022;SDS011;67403;50.104;8.758;2023-04-16T02:18:50;12.60;;;5.85;;
28022;SDS011;67403;50.104;8.758;2023-04-16T02:21:17;11.25;;;5.10;;
28022;SDS011;67403;50.104;8.758;2023-04-16T02:23:44;10.88;;;5.63;;
28022;SDS011;67403;50.104;8.758;2023-04-16T02:26:15;11.32;;;5.65;;
28022;SDS011;67403;50.104;8.758;2023-04-16T02:28:42;10.57;;;5.20;;
28022;SDS011;67403;50.104;8.758;2023-04-16T02:31:10;12.25;;;5.00;;
28022;SDS011;67403;50.104;8.758;2023-04-16T02:33:37;10.27;;;5.20;;
28022;SDS011;67403;50.104;8.758;2023-04-16T02:36:04;10.18;;;5.07;;
28022;SDS011;67403;50.104;8.758;2023-04-16T02:38:32;13.23;;;6.22;;
28022;SDS011;67403;50.104;8.758;2023-04-16T02:41:01;13.73;;;5.20;;
28022;SDS011;67403;50.104;8.758;2023-04-16T02:43:28;9.57;;;5.10;;
28022;SDS011;67403;50.104;8.758;2023-04-16T02:45:55;10.82;;;5.35;;
28022;SDS011;67403;50.104;8.758;2023-04-16T02:48:24;11.85;;;6.03;;
28022;SDS011;67403;50.104;8.758;2023-04-16T02:50:51;10.30;;;5.70;;
28022;SDS011;67403;50.104;8.758;2023-04-16T02:53:18;10.70;;;5.35;;
28022;SDS011;67403;50.104;8.758;2023-04-16T02:55:48;10.95;;;4.95;;
28022;SDS011;67403;50.104;8.758;2023-04-16T02:58:16;11.43;;;6.13;;
28022;SDS011;67403;50.104;8.758;2023-04-16T03:00:43;11.93;;;5.80;;
28022;SDS011;67403;50.104;8.758;2023-04-16T03:03:10;10.85;;;5.45;;
28022;SDS011;67403;50.104;8.758;2023-04-16T03:05:38;14.07;;;6.30;;
28022;SDS011;67403;50.104;8.758;2023-04-16T03:08:05;13.57;;;6.22;;
28022;SDS011;67403;50.104;8.758;2023-04-16T03:10:32;14.18;;;6.47;;
28022;SDS011;67403;50.104;8.758;2023-04-16T03:13:00;14.07;;;6.40;;
28022;SDS011;67403;50.104;8.758;2023-04-16T03:15:27;16.15;;;7.25;;
28022;SDS011;67403;50.104;8.758;2023-04-16T03:17:55;9.32;;;6.07;;
28022;SDS011;67403;50.104;8.758;2023-04-16T03:20:22;13.43;;;6.32;;
28022;SDS011;67403;50.104;8.758;2023-04-16T03:22:50;12.65;;;5.85;;
28022;SDS011;67403;50.104;8.758;2023-04-16T03:25:17;13.00;;;6.32;;
28022;SDS011;67403;50.104;8.758;2023-04-16T03:27:44;12.73;;;6.45;;
28022;SDS011;67403;50.104;8.758;2023-04-16T03:30:11;12.73;;;6.53;;
28022;SDS011;67403;50.104;8.758;2023-04-16T03:32:39;13.80;;;6.47;;
28022;SDS011;67403;50.104;8.758;2023-04-16T03:35:06;13.73;;;6.72;;
28022;SDS011;67403;50.104;8.758;2023-04-16T03:37:34;12.88;;;6.60;;
28022;SDS011;67403;50.104;8.758;2023-04-16T03:40:02;14.23;;;6.82;;
28022;SDS011;67403;50.104;8.758;2023-04-16T03:42:31;11.63;;;7.15;;
28022;SDS011;67403;50.104;8.758;2023-04-16T03:44:58;17.60;;;6.45;;
28022;SDS011;67403;50.104;8.758;2023-04-16T03:47:25;11.82;;;6.30;;
28022;SDS011;67403;50.104;8.758;2023-04-16T03:49:52;13.98;;;7.05;;
28022;SDS011;67403;50.104;8.758;2023-04-16T03:52:19;12.93;;;6.32;;
28022;SDS011;67403;50.104;8.758;2023-04-16T03:54:46;14.18;;;6.93;;
28022;SDS011;67403;50.104;8.758;2023-04-16T03:57:14;12.85;;;6.30;;
28022;SDS011;67403;50.104;8.758;2023-04-16T03:59:41;12.50;;;5.93;;
28022;SDS011;67403;50.104;8.758;2023-04-16T04:02:08;14.35;;;6.47;;
28022;SDS011;67403;50.104;8.758;2023-04-16T04:04:35;14.65;;;7.53;;
28022;SDS011;67403;50.104;8.758;2023-04-16T04:07:02;12.32;;;6.32;;
28022;SDS011;67403;50.104;8.758;2023-04-16T04:09:29;13.80;;;6.47;;
28022;SDS011;67403;50.104;8.758;2023-04-16T04:11:55;15.18;;;6.72;;
28022;SDS011;67403;50.104;8.758;2023-04-16T04:14:24;14.73;;;6.93;;
28022;SDS011;67403;50.104;8.758;2023-04-16T04:16:51;15.52;;;6.40;;
28022;SDS011;67403;50.104;8.758;2023-04-16T04:19:18;17.73;;;7.57;;
28022;SDS011;67403;50.104;8.758;2023-04-16T04:21:45;14.13;;;6.88;;
28022;SDS011;67403;50.104;8.758;2023-04-16T04:24:11;15.77;;;7.22;;
28022;SDS011;67403;50.104;8.758;2023-04-16T04:26:38;14.75;;;6.55;;
28022;SDS011;67403;50.104;8.758;2023-04-16T04:29:05;13.85;;;7.75;;
28022;SDS011;67403;50.104;8.758;2023-04-16T04:31:34;16.35;;;6.80;;
28022;SDS011;67403;50.104;8.758;2023-04-16T04:34:01;16.10;;;7.13;;
28022;SDS011;67403;50.104;8.758;2023-04-16T04:36:27;15.60;;;7.32;;
28022;SDS011;67403;50.104;8.758;2023-04-16T04:38:55;14.82;;;6.70;;
28022;SDS011;67403;50.104;8.758;2023-04-16T04:41:22;10.85;;;6.07;;
28022;SDS011;67403;50.104;8.758;2023-04-16T04:43:51;15.65;;;7.80;;
28022;SDS011;67403;50.104;8.758;2023-04-16T04:46:17;12.57;;;6.20;;
28022;SDS011;67403;50.104;8.758;2023-04-16T04:48:46;12.10;;;6.53;;
28022;SDS011;67403;50.104;8.758;2023-04-16T04:51:12;11.75;;;5.90;;
28022;SDS011;67403;50.104;8.758;2023-04-16T04:53:39;11.15;;;6.18;;
28022;SDS011;67403;50.104;8.758;2023-04-16T04:56:06;12.90;;;6.38;;
28022;SDS011;67403;50.104;8.758;2023-04-16T04:58:33;12.55;;;5.55;;
28022;SDS011;67403;50.104;8.758;2023-04-16T05:01:00;13.38;;;5.63;;
28022;SDS011;67403;50.104;8.758;2023-04-16T05:03:27;11.07;;;5.18;;
28022;SDS011;67403;50.104;8.758;2023-04-16T05:05:55;14.15;;;5.35;;
28022;SDS011;67403;50.104;8.758;2023-04-16T05:08:22;12.13;;;6.10;;
28022;SDS011;67403;50.104;8.758;2023-04-16T05:10:49;14.98;;;6.07;;
28022;SDS011;67403;50.104;8.758;2023-04-16T05:13:16;10.82;;;5.47;;
28022;SDS011;67403;50.104;8.758;2023-04-16T05:15:42;11.13;;;5.63;;
28022;SDS011;67403;50.104;8.758;2023-04-16T05:18:10;9.57;;;5.43;;
28022;SDS011;67403;50.104;8.758;2023-04-16T05:20:36;10.45;;;5.28;;
28022;SDS011;67403;50.104;8.758;2023-04-16T05:23:05;14.13;;;6.03;;
28022;SDS011;67403;50.104;8.758;2023-04-16T05:25:32;10.25;;;5.57;;
28022;SDS011;67403;50.104;8.758;2023-04-16T05:27:58;14.05;;;5.68;;
28022;SDS011;67403;50.104;8.758;2023-04-16T05:30:26;11.73;;;5.22;;
28022;SDS011;67403;50.104;8.758;2023-04-16T05:32:52;9.45;;;5.43;;
28022;SDS011;67403;50.104;8.758;2023-04-16T05:35:19;11.52;;;5.80;;
28022;SDS011;67403;50.104;8.758;2023-04-16T05:37:46;13.18;;;5.55;;
28022;SDS011;67403;50.104;8.758;2023-04-16T05:40:15;11.13;;;5.60;;
28022;SDS011;67403;50.104;8.758;2023-04-16T05:42:42;12.35;;;6.03;;
28022;SDS011;67403;50.104;8.758;2023-04-16T05:45:09;15.65;;;6.82;;
28022;SDS011;67403;50.104;8.758;2023-04-16T05:47:36;11.65;;;5.88;;
28022;SDS011;67403;50.104;8.758;2023-04-16T05:50:03;12.65;;;5.45;;
28022;SDS011;67403;50.104;8.758;2023-04-16T05:52:30;10.32;;;5.10;;
28022;SDS011;67403;50.104;8.758;2023-04-16T05:54:57;14.00;;;5.50;;
28022;SDS011;67403;50.104;8.758;2023-04-16T05:57:27;10.93;;;5.88;;
28022;SDS011;67403;50.104;8.758;2023-04-16T05:59:53;10.30;;;5.95;;
28022;SDS011;67403;50.104;8.758;2023-04-16T06:02:20;11.43;;;5.38;;
28022;SDS011;67403;50.104;8.758;2023-04-16T06:04:47;13.15;;;6.22;;
28022;SDS011;67403;50.104;8.758;2023-04-16T06:07:14;10.88;;;5.40;;
28022;SDS011;67403;50.104;8.758;2023-04-16T06:09:41;10.85;;;5.63;;
28022;SDS011;67403;50.104;8.758;2023-04-16T06:12:08;10.77;;;5.65;;
28022;SDS011;67403;50.104;8.758;2023-04-16T06:14:37;11.82;;;5.00;;
28022;SDS011;67403;50.104;8.758;2023-04-16T06:17:04;11.25;;;5.32;;
28022;SDS011;67403;50.104;8.758;2023-04-16T06:19:31;11.07;;;5.63;;
28022;SDS011;67403;50.104;8.758;2023-04-16T06:21:57;10.82;;;5.78;;
28022;SDS011;67403;50.104;8.758;2023-04-16T06:24:24;13.05;;;5.78;;
28022;SDS011;67403;50.104;8.758;2023-04-16T06:26:51;12.65;;;6.05;;
28022;SDS011;67403;50.104;8.758;2023-04-16T06:29:18;12.73;;;5.95;;
28022;SDS011;67403;50.104;8.758;2023-04-16T06:31:47;12.88;;;6.75;;
28022;SDS011;67403;50.104;8.758;2023-04-16T06:34:13;10.85;;;6.43;;
28022;SDS011;67403;50.104;8.758;2023-04-16T06:36:41;11.05;;;5.20;;
28022;SDS011;67403;50.104;8.758;2023-04-16T06:39:07;15.25;;;6.97;;
28022;SDS011;67403;50.104;8.758;2023-04-16T06:41:34;12.77;;;6.35;;
28022;SDS011;67403;50.104;8.758;2023-04-16T06:44:01;13.98;;;6.57;;
28022;SDS011;67403;50.104;8.758;2023-04-16T06:46:28;11.80;;;5.95;;
28022;SDS011;67403;50.104;8.758;2023-04-16T06:48:57;13.20;;;6.13;;
28022;SDS011;67403;50.104;8.758;2023-04-16T06:51:24;12.20;;;6.03;;
28022;SDS011;67403;50.104;8.758;2023-04-16T06:53:51;13.00;;;5.60;;
28022;SDS011;67403;50.104;8.758;2023-04-16T06:56:18;10.80;;;5.18;;
28022;SDS011;67403;50.104;8.758;2023-04-16T06:58:45;10.65;;;5.35;;
28022;SDS011;67403;50.104;8.758;2023-04-16T07:01:12;13.57;;;5.75;;
28022;SDS011;67403;50.104;8.758;2023-04-16T07:03:39;7.78;;;4.93;;
28022;SDS011;67403;50.104;8.758;2023-04-16T07:06:07;12.32;;;5.80;;
28022;SDS011;67403;50.104;8.758;2023-04-16T07:08:34;10.45;;;5.45;;
28022;SDS011;67403;50.104;8.758;2023-04-16T07:11:01;10.27;;;5.75;;
28022;SDS011;67403;50.104;8.758;2023-04-16T07:13:28;14.25;;;5.43;;
28022;SDS011;67403;50.104;8.758;2023-04-16T07:15:55;11.27;;;5.53;;
28022;SDS011;67403;50.104;8.758;2023-04-16T07:18:21;14.90;;;6.38;;
28022;SDS011;67403;50.104;8.758;2023-04-16T07:20:48;13.52;;;6.30;;
28022;SDS011;67403;50.104;8.758;2023-04-16T07:23:17;12.50;;;5.88;;
28022;SDS011;67403;50.104;8.758;2023-04-16T07:25:44;10.32;;;5.35;;
28022;SDS011;67403;50.104;8.758;2023-04-16T07:28:10;12.38;;;5.97;;
28022;SDS011;67403;50.104;8.758;2023-04-16T07:30:37;12.07;;;5.63;;
28022;SDS011;67403;50.104;8.758;2023-04-16T07:33:04;11.88;;;6.35;;
28022;SDS011;67403;50.104;8.758;2023-04-16T07:35:31;12.00;;;6.72;;
28022;SDS011;67403;50.104;8.758;2023-04-16T07:37:58;13.30;;;6.05;;
28022;SDS011;67403;50.104;8.758;2023-04-16T07:40:27;13.40;;;6.05;;
28022;SDS011;67403;50.104;8.758;2023-04-16T07:42:54;14.18;;;6.00;;
28022;SDS011;67403;50.104;8.758;2023-04-16T07:45:21;14.60;;;6.35;;
28022;SDS011;67403;50.104;8.758;2023-04-16T07:47:48;11.75;;;5.97;;
28022;SDS011;67403;50.104;8.758;2023-04-16T07:50:15;13.00;;;6.60;;
28022;SDS011;67403;50.104;8.758;2023-04-16T07:52:43;12.05;;;6.20;;
28022;SDS011;67403;50.104;8.758;2023-04-16T07:55:10;12.23;;;6.28;;
28022;SDS011;67403;50.104;8.758;2023-04-16T07:57:38;14.20;;;6.60;;
28022;SDS011;67403;50.104;8.758;2023-04-16T08:00:06;12.90;;;6.70;;
28022;SDS011;67403;50.104;8.758;2023-04-16T08:02:33;16.38;;;6.75;;
28022;SDS011;67403;50.104;8.758;2023-04-16T08:05:00;12.55;;;6.78;;
28022;SDS011;67403;50.104;8.758;2023-04-16T08:07:27;12.52;;;6.47;;
28022;SDS011;67403;50.104;8.758;2023-04-16T08:09:54;17.73;;;7.40;;
28022;SDS011;67403;50.104;8.758;2023-04-16T08:12:21;14.32;;;6.65;;
28022;SDS011;67403;50.104;8.758;2023-04-16T08:14:50;16.45;;;7.35;;
28022;SDS011;67403;50.104;8.758;2023-04-16T08:17:17;12.77;;;6.45;;
28022;SDS011;67403;50.104;8.758;2023-04-16T08:19:43;13.25;;;6.80;;
28022;SDS011;67403;50.104;8.758;2023-04-16T08:22:10;12.48;;;6.47;;
28022;SDS011;67403;50.104;8.758;2023-04-16T08:24:37;13.75;;;7.40;;
28022;SDS011;67403;50.104;8.758;2023-04-16T08:27:04;17.35;;;7.57;;
28022;SDS011;67403;50.104;8.758;2023-04-16T08:29:31;14.10;;;6.93;;
28022;SDS011;67403;50.104;8.758;2023-04-16T08:31:59;14.48;;;7.07;;
28022;SDS011;67403;50.104;8.758;2023-04-16T08:34:26;13.68;;;6.85;;
28022;SDS011;67403;50.104;8.758;2023-04-16T08:36:53;11.63;;;7.15;;
28022;SDS011;67403;50.104;8.758;2023-04-16T08:39:20;13.27;;;6.60;;
28022;SDS011;67403;50.104;8.758;2023-04-16T08:41:47;14.00;;;7.15;;
28022;SDS011;67403;50.104;8.758;2023-04-16T08:44:17;14.48;;;7.00;;
28022;SDS011;67403;50.104;8.758;2023-04-16T08:46:46;18.40;;;8.38;;
28022;SDS011;67403;50.104;8.758;2023-04-16T08:49:15;13.55;;;7.35;;
28022;SDS011;67403;50.104;8.758;2023-04-16T08:51:44;14.32;;;6.00;;
28022;SDS011;67403;50.104;8.758;2023-04-16T08:54:17;14.70;;;7.10;;
28022;SDS011;67403;50.104;8.758;2023-04-16T08:56:57;17.17;;;7.50;;
28022;SDS011;67403;50.104;8.758;2023-04-16T08:59:25;13.48;;;6.32;;
28022;SDS011;67403;50.104;8.758;2023-04-16T09:01:55;13.75;;;6.88;;
28022;SDS011;67403;50.104;8.758;2023-04-16T09:04:24;14.45;;;6.97;;
28022;SDS011;67403;50.104;8.758;2023-04-16T09:06:52;20.75;;;8.25;;
28022;SDS011;67403;50.104;8.758;2023-04-16T09:09:20;18.27;;;9.00;;
28022;SDS011;67403;50.104;8.758;2023-04-16T09:11:49;14.43;;;7.75;;
28022;SDS011;67403;50.104;8.758;2023-04-16T09:14:17;14.32;;;7.60;;
28022;SDS011;67403;50.104;8.758;2023-04-16T09:16:44;12.07;;;6.97;;
28022;SDS011;67403;50.104;8.758;2023-04-16T09:19:12;11.13;;;6.30;;
28022;SDS011;67403;50.104;8.758;2023-04-16T09:21:41;16.50;;;7.75;;
28022;SDS011;67403;50.104;8.758;2023-04-16T09:24:08;12.52;;;6.93;;
28022;SDS011;67403;50.104;8.758;2023-04-16T09:26:35;16.20;;;6.78;;
28022;SDS011;67403;50.104;8.758;2023-04-16T09:29:03;14.27;;;7.32;;
28022;SDS011;67403;50.104;8.758;2023-04-16T09:31:30;13.93;;;7.32;;
28022;SDS011;67403;50.104;8.758;2023-04-16T09:34:00;14.73;;;7.97;;
28022;SDS011;67403;50.104;8.758;2023-04-16T09:36:29;16.98;;;8.18;;
28022;SDS011;67403;50.104;8.758;2023-04-16T09:38:58;14.95;;;7.38;;
28022;SDS011;67403;50.104;8.758;2023-04-16T09:41:26;13.73;;;7.70;;
28022;SDS011;67403;50.104;8.758;2023-04-16T09:43:55;21.20;;;7.77;;
28022;SDS011;67403;50.104;8.758;2023-04-16T09:46:23;13.38;;;7.85;;
28022;SDS011;67403;50.104;8.758;2023-04-16T09:48:54;16.98;;;8.15;;
28022;SDS011;67403;50.104;8.758;2023-04-16T09:51:21;17.08;;;8.80;;
28022;SDS011;67403;50.104;8.758;2023-04-16T09:53:50;14.18;;;8.18;;
28022;SDS011;67403;50.104;8.758;2023-04-16T09:56:19;13.65;;;7.30;;
28022;SDS011;67403;50.104;8.758;2023-04-16T09:58:50;16.80;;;8.00;;
28022;SDS011;67403;50.104;8.758;2023-04-16T10:01:21;13.32;;;8.10;;
28022;SDS011;67403;50.104;8.758;2023-04-16T10:03:52;14.73;;;8.02;;
28022;SDS011;67403;50.104;8.758;2023-04-16T10:06:21;17.23;;;8.82;;
28022;SDS011;67403;50.104;8.758;2023-04-16T10:08:50;14.67;;;7.50;;
28022;SDS011;67403;50.104;8.758;2023-04-16T10:11:19;15.57;;;8.15;;
28022;SDS011;67403;50.104;8.758;2023-04-16T10:13:46;18.50;;;9.07;;
28022;SDS011;67403;50.104;8.758;2023-04-16T10:16:13;17.63;;;8.02;;
28022;SDS011;67403;50.104;8.758;2023-04-16T10:18:40;16.85;;;7.60;;
28022;SDS011;67403;50.104;8.758;2023-04-16T10:21:08;17.83;;;8.13;;
28022;SDS011;67403;50.104;8.758;2023-04-16T10:23:37;17.88;;;7.97;;
28022;SDS011;67403;50.104;8.758;2023-04-16T10:26:04;13.75;;;7.40;;
28022;SDS011;67403;50.104;8.758;2023-04-16T10:28:33;14.88;;;6.70;;
28022;SDS011;67403;50.104;8.758;2023-04-16T10:31:01;14.77;;;7.95;;
28022;SDS011;67403;50.104;8.758;2023-04-16T10:33:30;14.55;;;7.75;;
28022;SDS011;67403;50.104;8.758;2023-04-16T10:36:06;14.00;;;7.53;;
28022;SDS011;67403;50.104;8.758;2023-04-16T10:38:37;15.52;;;8.10;;
28022;SDS011;67403;50.104;8.758;2023-04-16T10:43:39;13.90;;;6.70;;
28022;SDS011;67403;50.104;8.758;2023-04-16T10:46:19;20.50;;;8.57;;
28022;SDS011;67403;50.104;8.758;2023-04-16T10:48:48;12.32;;;6.72;;
28022;SDS011;67403;50.104;8.758;2023-04-16T10:51:23;13.75;;;7.63;;
28022;SDS011;67403;50.104;8.758;2023-04-16T10:53:52;14.65;;;7.90;;
28022;SDS011;67403;50.104;8.758;2023-04-16T10:56:23;15.85;;;8.50;;
28022;SDS011;67403;50.104;8.758;2023-04-16T10:58:52;14.93;;;7.55;;
28022;SDS011;67403;50.104;8.758;2023-04-16T11:01:25;12.30;;;7.70;;
28022;SDS011;67403;50.104;8.758;2023-04-16T11:03:57;15.63;;;8.05;;
28022;SDS011;67403;50.104;8.758;2023-04-16T11:08:53;16.58;;;7.65;;
28022;SDS011;67403;50.104;8.758;2023-04-16T11:11:20;13.70;;;7.18;;
28022;SDS011;67403;50.104;8.758;2023-04-16T11:13:48;14.43;;;7.70;;
28022;SDS011;67403;50.104;8.758;2023-04-16T11:16:16;15.43;;;8.07;;
28022;SDS011;67403;50.104;8.758;2023-04-16T11:18:44;15.65;;;7.53;;
28022;SDS011;67403;50.104;8.758;2023-04-16T11:21:11;17.20;;;8.13;;
28022;SDS011;67403;50.104;8.758;2023-04-16T11:23:45;24.67;;;8.95;;
28022;SDS011;67403;50.104;8.758;2023-04-16T11:26:23;18.15;;;8.10;;
28022;SDS011;67403;50.104;8.758;2023-04-16T11:28:51;16.60;;;9.77;;
28022;SDS011;67403;50.104;8.758;2023-04-16T11:31:20;22.98;;;10.00;;
28022;SDS011;67403;50.104;8.758;2023-04-16T11:33:48;18.55;;;8.43;;
28022;SDS011;67403;50.104;8.758;2023-04-16T11:36:15;16.08;;;9.20;;
28022;SDS011;67403;50.104;8.758;2023-04-16T11:38:42;19.88;;;9.85;;
28022;SDS011;67403;50.104;8.758;2023-04-16T11:41:09;17.30;;;8.85;;
28022;SDS011;67403;50.104;8.758;2023-04-16T11:43:36;17.55;;;9.18;;
28022;SDS011;67403;50.104;8.758;2023-04-16T11:46:03;16.80;;;9.60;;
28022;SDS011;67403;50.104;8.758;2023-04-16T11:48:49;20.25;;;9.43;;
28022;SDS011;67403;50.104;8.758;2023-04-16T11:51:17;18.95;;;10.18;;
28022;SDS011;67403;50.104;8.758;2023-04-16T11:53:46;16.77;;;9.32;;
28022;SDS011;67403;50.104;8.758;2023-04-16T11:56:14;20.63;;;10.68;;
28022;SDS011;67403;50.104;8.758;2023-04-16T11:58:41;18.92;;;9.82;;
28022;SDS011;67403;50.104;8.758;2023-04-16T12:01:08;18.25;;;9.32;;
28022;SDS011;67403;50.104;8.758;2023-04-16T12:03:36;18.75;;;9.38;;
28022;SDS011;67403;50.104;8.758;2023-04-16T12:06:09;20.98;;;11.05;;
28022;SDS011;67403;50.104;8.758;2023-04-16T12:08:36;17.67;;;9.73;;
28022;SDS011;67403;50.104;8.758;2023-04-16T12:11:03;18.65;;;10.35;;
28022;SDS011;67403;50.104;8.758;2023-04-16T12:13:30;16.55;;;9.88;;
28022;SDS011;67403;50.104;8.758;2023-04-16T12:16:11;17.35;;;10.18;;
28022;SDS011;67403;50.104;8.758;2023-04-16T12:21:36;21.65;;;11.93;;
28022;SDS011;67403;50.104;8.758;2023-04-16T12:24:03;23.90;;;11.50;;
28022;SDS011;67403;50.104;8.758;2023-04-16T12:26:35;21.40;;;12.68;;
28022;SDS011;67403;50.104;8.758;2023-04-16T12:29:13;23.52;;;12.32;;
28022;SDS011;67403;50.104;8.758;2023-04-16T12:31:41;24.73;;;12.88;;
28022;SDS011;67403;50.104;8.758;2023-04-16T12:34:08;21.45;;;12.10;;
28022;SDS011;67403;50.104;8.758;2023-04-16T12:36:36;22.02;;;11.52;;
28022;SDS011;67403;50.104;8.758;2023-04-16T12:39:03;21.55;;;12.10;;
28022;SDS011;67403;50.104;8.758;2023-04-16T12:41:31;24.48;;;13.57;;
28022;SDS011;67403;50.104;8.758;2023-04-16T12:44:03;24.98;;;13.50;;
28022;SDS011;67403;50.104;8.758;2023-04-16T12:46:33;26.67;;;13.18;;
28022;SDS011;67403;50.104;8.758;2023-04-16T12:49:02;24.70;;;12.68;;
28022;SDS011;67403;50.104;8.758;2023-04-16T12:51:28;23.42;;;13.77;;
28022;SDS011;67403;50.104;8.758;2023-04-16T12:53:58;32.33;;;14.77;;
28022;SDS011;67403;50.104;8.758;2023-04-16T12:56:25;24.90;;;13.35;;
28022;SDS011;67403;50.104;8.758;2023-04-16T12:58:52;28.13;;;13.88;;
28022;SDS011;67403;50.104;8.758;2023-04-16T13:01:19;29.38;;;14.93;;
28022;SDS011;67403;50.104;8.758;2023-04-16T13:03:46;29.80;;;15.65;;
28022;SDS011;67403;50.104;8.758;2023-04-16T13:06:14;30.67;;;13.93;;
28022;SDS011;67403;50.104;8.758;2023-04-16T13:08:42;29.17;;;14.73;;
28022;SDS011;67403;50.104;8.758;2023-04-16T13:11:11;28.02;;;14.27;;
28022;SDS011;67403;50.104;8.758;2023-04-16T13:13:38;23.10;;;12.55;;
28022;SDS011;67403;50.104;8.758;2023-04-16T13:16:05;25.85;;;14.23;;
28022;SDS011;67403;50.104;8.758;2023-04-16T13:18:33;29.13;;;12.75;;
28022;SDS011;67403;50.104;8.758;2023-04-16T13:21:01;28.13;;;14.25;;
28022;SDS011;67403;50.104;8.758;2023-04-16T13:23:28;25.60;;;13.73;;
28022;SDS011;67403;50.104;8.758;2023-04-16T13:25:55;24.10;;;13.15;;
28022;SDS011;67403;50.104;8.758;2023-04-16T13:28:23;25.38;;;13.63;;
28022;SDS011;67403;50.104;8.758;2023-04-16T13:32:09;24.60;;;12.93;;
28022;SDS011;67403;50.104;8.758;2023-04-16T13:33:59;27.58;;;13.20;;
28022;SDS011;67403;50.104;8.758;2023-04-16T13:39:13;24.13;;;12.35;;
28022;SDS011;67403;50.104;8.758;2023-04-16T13:41:40;25.90;;;13.35;;
28022;SDS011;67403;50.104;8.758;2023-04-16T13:44:08;21.25;;;12.77;;
28022;SDS011;67403;50.104;8.758;2023-04-16T13:46:35;22.55;;;13.15;;
28022;SDS011;67403;50.104;8.758;2023-04-16T13:49:02;24.52;;;12.70;;
28022;SDS011;67403;50.104;8.758;2023-04-16T13:51:29;27.58;;;15.60;;
28022;SDS011;67403;50.104;8.758;2023-04-16T13:53:56;30.02;;;14.98;;
28022;SDS011;67403;50.104;8.758;2023-04-16T13:56:23;29.15;;;15.85;;
28022;SDS011;67403;50.104;8.758;2023-04-16T13:58:50;23.60;;;13.90;;
28022;SDS011;67403;50.104;8.758;2023-04-16T14:01:19;25.02;;;12.88;;
28022;SDS011;67403;50.104;8.758;2023-04-16T14:03:45;24.60;;;13.18;;
28022;SDS011;67403;50.104;8.758;2023-04-16T14:06:12;24.23;;;12.93;;
28022;SDS011;67403;50.104;8.758;2023-04-16T14:08:42;18.60;;;12.07;;
28022;SDS011;67403;50.104;8.758;2023-04-16T14:11:09;29.05;;;13.70;;
28022;SDS011;67403;50.104;8.758;2023-04-16T14:13:36;21.50;;;12.93;;
28022;SDS011;67403;50.104;8.758;2023-04-16T14:16:03;27.77;;;14.43;;
28022;SDS011;67403;50.104;8.758;2023-04-16T14:18:32;23.42;;;13.50;;
28022;SDS011;67403;50.104;8.758;2023-04-16T14:21:00;22.75;;;12.35;;
28022;SDS011;67403;50.104;8.758;2023-04-16T14:23:27;22.17;;;12.85;;
28022;SDS011;67403;50.104;8.758;2023-04-16T14:25:54;22.27;;;12.38;;
28022;SDS011;67403;50.104;8.758;2023-04-16T14:28:21;22.95;;;12.02;;
28022;SDS011;67403;50.104;8.758;2023-04-16T14:30:47;25.38;;;12.85;;
28022;SDS011;67403;50.104;8.758;2023-04-16T14:33:15;41.25;;;18.75;;
28022;SDS011;67403;50.104;8.758;2023-04-16T14:35:43;37.08;;;14.60;;
28022;SDS011;67403;50.104;8.758;2023-04-16T14:38:10;28.80;;;14.32;;
28022;SDS011;67403;50.104;8.758;2023-04-16T14:40:37;26.90;;;13.02;;
28022;SDS011;67403;50.104;8.758;2023-04-16T14:43:04;27.38;;;14.60;;
28022;SDS011;67403;50.104;8.758;2023-04-16T14:45:30;22.52;;;12.13;;
28022;SDS011;67403;50.104;8.758;2023-04-16T14:47:57;21.52;;;12.25;;